sensor_id;sensor_type;location;lat;lon;timestamp;temperature;humidity
51615;DHT22;37695;52.960;6.188;2024-02-21T00:01:43;9.60;99.90
51615;DHT22;37695;52.960;6.188;2024-02-21T00:04:08;9.60;99.90
51615;DHT22;37695;52.960;6.188;2024-02-21T00:06:34;9.70;99.90
51615;DHT22;37695;52.960;6.188;2024-02-21T00:08:59;9.70;99.90
51615;DHT22;37695;52.960;6.188;2024-02-21T00:11:25;9.70;99.90
51615;DHT22;37695;52.960;6.188;2024-02-21T00:13:51;9.70;99.90
51615;DHT22;37695;52.960;6.188;2024-02-21T00:16:16;9.60;99.90
51615;DHT22;37695;52.960;6.188;2024-02-21T00:18:43;9.70;99.90
51615;DHT22;37695;52.960;6.188;2024-02-21T00:21:09;9.60;99.90
51615;DHT22;37695;52.960;6.188;2024-02-21T00:23:35;9.60;99.90
51615;DHT22;37695;52.960;6.188;2024-02-21T00:26:00;9.70;99.90
51615;DHT22;37695;52.960;6.188;2024-02-21T00:28:26;9.60;99.90
51615;DHT22;37695;52.960;6.188;2024-02-21T00:30:51;9.60;99.90
51615;DHT22;37695;52.960;6.188;2024-02-21T00:33:19;9.60;99.90
51615;DHT22;37695;52.960;6.188;2024-02-21T00:35:44;9.60;99.90
51615;DHT22;37695;52.960;6.188;2024-02-21T00:38:10;9.60;99.90
51615;DHT22;37695;52.960;6.188;2024-02-21T00:40:36;9.60;99.90
51615;DHT22;37695;52.960;6.188;2024-02-21T00:43:02;9.60;99.90
51615;DHT22;37695;52.960;6.188;2024-02-21T00:45:28;9.60;99.90
51615;DHT22;37695;52.960;6.188;2024-02-21T00:47:53;9.50;99.90
51615;DHT22;37695;52.960;6.188;2024-02-21T00:50:19;9.40;99.90
51615;DHT22;37695;52.960;6.188;2024-02-21T00:52:45;9.40;99.90
51615;DHT22;37695;52.960;6.188;2024-02-21T00:55:11;9.40;99.90
51615;DHT22;37695;52.960;6.188;2024-02-21T00:57:36;9.40;99.90
51615;DHT22;37695;52.960;6.188;2024-02-21T01:00:03;9.40;99.90
51615;DHT22;37695;52.960;6.188;2024-02-21T01:02:29;9.40;99.90
51615;DHT22;37695;52.960;6.188;2024-02-21T01:04:57;9.40;99.90
51615;DHT22;37695;52.960;6.188;2024-02-21T01:07:23;9.30;99.90
51615;DHT22;37695;52.960;6.188;2024-02-21T01:09:49;9.40;99.90
51615;DHT22;37695;52.960;6.188;2024-02-21T01:12:16;9.30;99.90
51615;DHT22;37695;52.960;6.188;2024-02-21T01:14:42;9.40;99.90
51615;DHT22;37695;52.960;6.188;2024-02-21T01:17:08;9.30;99.90
51615;DHT22;37695;52.960;6.188;2024-02-21T01:19:34;9.40;99.90
51615;DHT22;37695;52.960;6.188;2024-02-21T01:21:59;9.30;99.90
51615;DHT22;37695;52.960;6.188;2024-02-21T01:24:25;9.30;99.90
51615;DHT22;37695;52.960;6.188;2024-02-21T01:26:51;9.20;99.90
51615;DHT22;37695;52.960;6.188;2024-02-21T01:29:16;7.90;99.90
51615;DHT22;37695;52.960;6.188;2024-02-21T01:31:42;9.30;99.90
51615;DHT22;37695;52.960;6.188;2024-02-21T01:34:08;9.30;99.90
51615;DHT22;37695;52.960;6.188;2024-02-21T01:36:34;9.20;99.90
51615;DHT22;37695;52.960;6.188;2024-02-21T01:39:00;9.20;99.90
51615;DHT22;37695;52.960;6.188;2024-02-21T01:41:26;9.20;99.90
51615;DHT22;37695;52.960;6.188;2024-02-21T01:43:51;9.20;99.90
51615;DHT22;37695;52.960;6.188;2024-02-21T01:46:17;9.30;99.90
51615;DHT22;37695;52.960;6.188;2024-02-21T01:48:43;9.20;99.90
51615;DHT22;37695;52.960;6.188;2024-02-21T01:51:11;9.20;99.90
51615;DHT22;37695;52.960;6.188;2024-02-21T01:53:43;9.20;99.90
51615;DHT22;37695;52.960;6.188;2024-02-21T01:56:09;9.20;99.90
51615;DHT22;37695;52.960;6.188;2024-02-21T01:58:37;9.20;99.90
51615;DHT22;37695;52.960;6.188;2024-02-21T02:01:03;9.20;99.90
51615;DHT22;37695;52.960;6.188;2024-02-21T02:03:29;9.10;99.90
51615;DHT22;37695;52.960;6.188;2024-02-21T02:05:55;9.20;99.90
51615;DHT22;37695;52.960;6.188;2024-02-21T02:08:21;9.20;99.90
51615;DHT22;37695;52.960;6.188;2024-02-21T02:10:48;9.10;99.90
51615;DHT22;37695;52.960;6.188;2024-02-21T02:13:13;9.10;99.90
51615;DHT22;37695;52.960;6.188;2024-02-21T02:15:44;9.20;99.90
51615;DHT22;37695;52.960;6.188;2024-02-21T02:18:11;9.20;99.90
51615;DHT22;37695;52.960;6.188;2024-02-21T02:20:37;9.20;99.90
51615;DHT22;37695;52.960;6.188;2024-02-21T02:25:47;9.10;99.90
51615;DHT22;37695;52.960;6.188;2024-02-21T02:28:18;9.00;99.90
51615;DHT22;37695;52.960;6.188;2024-02-21T02:30:43;9.00;99.90
51615;DHT22;37695;52.960;6.188;2024-02-21T02:33:09;9.10;99.90
51615;DHT22;37695;52.960;6.188;2024-02-21T02:35:35;9.00;99.90
51615;DHT22;37695;52.960;6.188;2024-02-21T02:38:04;9.00;99.90
51615;DHT22;37695;52.960;6.188;2024-02-21T02:40:31;9.00;99.90
51615;DHT22;37695;52.960;6.188;2024-02-21T02:42:56;9.10;99.90
51615;DHT22;37695;52.960;6.188;2024-02-21T02:45:23;9.00;99.90
51615;DHT22;37695;52.960;6.188;2024-02-21T02:47:49;9.00;99.90
51615;DHT22;37695;52.960;6.188;2024-02-21T02:50:15;9.10;99.90
51615;DHT22;37695;52.960;6.188;2024-02-21T02:52:41;9.10;99.90
51615;DHT22;37695;52.960;6.188;2024-02-21T02:55:07;9.00;99.90
51615;DHT22;37695;52.960;6.188;2024-02-21T02:57:33;9.10;99.90
51615;DHT22;37695;52.960;6.188;2024-02-21T02:59:58;9.10;99.90
51615;DHT22;37695;52.960;6.188;2024-02-21T03:02:24;9.10;99.90
51615;DHT22;37695;52.960;6.188;2024-02-21T03:04:50;9.10;99.90
51615;DHT22;37695;52.960;6.188;2024-02-21T03:07:16;9.10;99.90
51615;DHT22;37695;52.960;6.188;2024-02-21T03:09:42;9.00;99.90
51615;DHT22;37695;52.960;6.188;2024-02-21T03:12:10;9.10;99.90
51615;DHT22;37695;52.960;6.188;2024-02-21T03:14:36;9.10;99.90
51615;DHT22;37695;52.960;6.188;2024-02-21T03:17:03;9.00;99.90
51615;DHT22;37695;52.960;6.188;2024-02-21T03:19:29;9.00;99.90
51615;DHT22;37695;52.960;6.188;2024-02-21T03:21:55;9.00;99.90
51615;DHT22;37695;52.960;6.188;2024-02-21T03:24:21;9.10;99.90
51615;DHT22;37695;52.960;6.188;2024-02-21T03:26:47;9.10;99.90
51615;DHT22;37695;52.960;6.188;2024-02-21T03:29:15;9.00;99.90
51615;DHT22;37695;52.960;6.188;2024-02-21T03:31:41;9.00;99.90
51615;DHT22;37695;52.960;6.188;2024-02-21T03:34:07;9.00;99.90
51615;DHT22;37695;52.960;6.188;2024-02-21T03:36:33;9.10;99.90
51615;DHT22;37695;52.960;6.188;2024-02-21T03:38:59;9.10;99.90
51615;DHT22;37695;52.960;6.188;2024-02-21T03:41:24;9.10;99.90
51615;DHT22;37695;52.960;6.188;2024-02-21T03:43:50;9.00;99.90
51615;DHT22;37695;52.960;6.188;2024-02-21T03:46:16;9.10;99.90
51615;DHT22;37695;52.960;6.188;2024-02-21T03:48:41;9.10;99.90
51615;DHT22;37695;52.960;6.188;2024-02-21T03:51:07;9.10;99.90
51615;DHT22;37695;52.960;6.188;2024-02-21T03:53:33;9.10;99.90
51615;DHT22;37695;52.960;6.188;2024-02-21T03:56:01;9.20;99.90
51615;DHT22;37695;52.960;6.188;2024-02-21T03:58:29;9.10;99.90
51615;DHT22;37695;52.960;6.188;2024-02-21T04:00:55;9.10;99.90
51615;DHT22;37695;52.960;6.188;2024-02-21T04:03:21;9.10;99.90
51615;DHT22;37695;52.960;6.188;2024-02-21T04:05:46;9.10;99.90
51615;DHT22;37695;52.960;6.188;2024-02-21T04:08:13;9.10;99.90
51615;DHT22;37695;52.960;6.188;2024-02-21T04:10:39;9.10;99.90
51615;DHT22;37695;52.960;6.188;2024-02-21T04:13:06;9.20;99.90
51615;DHT22;37695;52.960;6.188;2024-02-21T04:15:32;9.10;99.90
51615;DHT22;37695;52.960;6.188;2024-02-21T04:17:58;9.10;99.90
51615;DHT22;37695;52.960;6.188;2024-02-21T04:20:23;9.10;99.90
51615;DHT22;37695;52.960;6.188;2024-02-21T04:22:49;9.10;99.90
51615;DHT22;37695;52.960;6.188;2024-02-21T04:25:15;9.20;99.90
51615;DHT22;37695;52.960;6.188;2024-02-21T04:27:41;9.20;99.90
51615;DHT22;37695;52.960;6.188;2024-02-21T04:30:07;9.10;99.90
51615;DHT22;37695;52.960;6.188;2024-02-21T04:32:33;9.20;99.90
51615;DHT22;37695;52.960;6.188;2024-02-21T04:34:59;9.20;99.90
51615;DHT22;37695;52.960;6.188;2024-02-21T04:37:24;9.20;99.90
51615;DHT22;37695;52.960;6.188;2024-02-21T04:39:50;9.20;99.90
51615;DHT22;37695;52.960;6.188;2024-02-21T04:42:16;9.20;99.90
51615;DHT22;37695;52.960;6.188;2024-02-21T04:44:42;9.20;99.90
51615;DHT22;37695;52.960;6.188;2024-02-21T04:47:08;9.20;99.90
51615;DHT22;37695;52.960;6.188;2024-02-21T04:49:34;9.20;99.90
51615;DHT22;37695;52.960;6.188;2024-02-21T04:52:00;9.20;99.90
51615;DHT22;37695;52.960;6.188;2024-02-21T04:54:25;9.20;99.90
51615;DHT22;37695;52.960;6.188;2024-02-21T04:56:51;9.20;99.90
51615;DHT22;37695;52.960;6.188;2024-02-21T04:59:17;9.20;99.90
51615;DHT22;37695;52.960;6.188;2024-02-21T05:01:43;9.10;99.90
51615;DHT22;37695;52.960;6.188;2024-02-21T05:04:08;9.10;99.90
51615;DHT22;37695;52.960;6.188;2024-02-21T05:06:41;9.20;99.90
51615;DHT22;37695;52.960;6.188;2024-02-21T05:09:09;9.10;99.90
51615;DHT22;37695;52.960;6.188;2024-02-21T05:11:38;9.10;99.90
51615;DHT22;37695;52.960;6.188;2024-02-21T05:14:04;9.10;99.90
51615;DHT22;37695;52.960;6.188;2024-02-21T05:16:31;9.10;99.90
51615;DHT22;37695;52.960;6.188;2024-02-21T05:18:56;9.10;99.90
51615;DHT22;37695;52.960;6.188;2024-02-21T05:21:26;9.20;99.90
51615;DHT22;37695;52.960;6.188;2024-02-21T05:23:53;9.20;99.90
51615;DHT22;37695;52.960;6.188;2024-02-21T05:26:26;9.10;99.90
51615;DHT22;37695;52.960;6.188;2024-02-21T05:28:52;9.20;99.90
51615;DHT22;37695;52.960;6.188;2024-02-21T05:31:19;9.10;99.90
51615;DHT22;37695;52.960;6.188;2024-02-21T05:33:45;9.20;99.90
51615;DHT22;37695;52.960;6.188;2024-02-21T05:36:11;9.20;99.90
51615;DHT22;37695;52.960;6.188;2024-02-21T05:38:37;9.10;99.90
51615;DHT22;37695;52.960;6.188;2024-02-21T05:41:03;9.10;99.90
51615;DHT22;37695;52.960;6.188;2024-02-21T05:43:29;9.10;99.90
51615;DHT22;37695;52.960;6.188;2024-02-21T05:45:55;9.10;99.90
51615;DHT22;37695;52.960;6.188;2024-02-21T05:48:22;9.10;99.90
51615;DHT22;37695;52.960;6.188;2024-02-21T05:50:48;9.10;99.90
51615;DHT22;37695;52.960;6.188;2024-02-21T05:53:13;9.10;99.90
51615;DHT22;37695;52.960;6.188;2024-02-21T05:55:40;9.20;99.90
51615;DHT22;37695;52.960;6.188;2024-02-21T05:58:05;9.20;99.90
51615;DHT22;37695;52.960;6.188;2024-02-21T06:00:31;9.10;99.90
51615;DHT22;37695;52.960;6.188;2024-02-21T06:02:57;9.10;99.90
51615;DHT22;37695;52.960;6.188;2024-02-21T06:05:23;9.10;99.90
51615;DHT22;37695;52.960;6.188;2024-02-21T06:07:49;9.20;99.90
51615;DHT22;37695;52.960;6.188;2024-02-21T06:10:15;9.10;99.90
51615;DHT22;37695;52.960;6.188;2024-02-21T06:12:41;9.10;99.90
51615;DHT22;37695;52.960;6.188;2024-02-21T06:15:07;9.20;99.90
51615;DHT22;37695;52.960;6.188;2024-02-21T06:17:32;9.20;99.90
51615;DHT22;37695;52.960;6.188;2024-02-21T06:19:58;9.20;99.90
51615;DHT22;37695;52.960;6.188;2024-02-21T06:22:24;9.20;99.90
51615;DHT22;37695;52.960;6.188;2024-02-21T06:24:49;9.20;99.90
51615;DHT22;37695;52.960;6.188;2024-02-21T06:27:15;9.10;99.90
51615;DHT22;37695;52.960;6.188;2024-02-21T06:29:42;9.20;99.90
51615;DHT22;37695;52.960;6.188;2024-02-21T06:32:07;9.20;99.90
51615;DHT22;37695;52.960;6.188;2024-02-21T06:34:33;9.20;99.90
51615;DHT22;37695;52.960;6.188;2024-02-21T06:36:59;9.20;99.90
51615;DHT22;37695;52.960;6.188;2024-02-21T06:39:24;9.20;99.90
51615;DHT22;37695;52.960;6.188;2024-02-21T06:41:50;9.20;99.90
51615;DHT22;37695;52.960;6.188;2024-02-21T06:44:17;9.20;99.90
51615;DHT22;37695;52.960;6.188;2024-02-21T06:46:43;9.20;99.90
51615;DHT22;37695;52.960;6.188;2024-02-21T06:49:09;9.20;99.90
51615;DHT22;37695;52.960;6.188;2024-02-21T06:51:34;9.20;99.90
51615;DHT22;37695;52.960;6.188;2024-02-21T06:54:00;9.20;99.90
51615;DHT22;37695;52.960;6.188;2024-02-21T06:56:26;9.10;99.90
51615;DHT22;37695;52.960;6.188;2024-02-21T06:58:57;9.10;99.90
51615;DHT22;37695;52.960;6.188;2024-02-21T07:01:23;9.20;99.90
51615;DHT22;37695;52.960;6.188;2024-02-21T07:03:48;9.20;99.90
51615;DHT22;37695;52.960;6.188;2024-02-21T07:06:14;9.20;99.90
51615;DHT22;37695;52.960;6.188;2024-02-21T07:08:40;9.20;99.90
51615;DHT22;37695;52.960;6.188;2024-02-21T07:11:05;9.20;99.90
51615;DHT22;37695;52.960;6.188;2024-02-21T07:13:32;9.20;99.90
51615;DHT22;37695;52.960;6.188;2024-02-21T07:15:58;9.20;99.90
51615;DHT22;37695;52.960;6.188;2024-02-21T07:18:24;9.30;99.90
51615;DHT22;37695;52.960;6.188;2024-02-21T07:20:51;9.20;99.90
51615;DHT22;37695;52.960;6.188;2024-02-21T07:23:18;9.20;99.90
51615;DHT22;37695;52.960;6.188;2024-02-21T07:25:43;9.20;99.90
51615;DHT22;37695;52.960;6.188;2024-02-21T07:28:09;9.30;99.90
51615;DHT22;37695;52.960;6.188;2024-02-21T07:30:35;9.20;99.90
51615;DHT22;37695;52.960;6.188;2024-02-21T07:33:00;9.30;99.90
51615;DHT22;37695;52.960;6.188;2024-02-21T07:35:26;9.30;99.90
51615;DHT22;37695;52.960;6.188;2024-02-21T07:37:52;9.30;99.90
51615;DHT22;37695;52.960;6.188;2024-02-21T07:40:17;9.40;99.90
51615;DHT22;37695;52.960;6.188;2024-02-21T07:42:44;9.40;99.90
51615;DHT22;37695;52.960;6.188;2024-02-21T07:45:10;9.30;99.90
51615;DHT22;37695;52.960;6.188;2024-02-21T07:47:36;9.40;99.90
51615;DHT22;37695;52.960;6.188;2024-02-21T07:50:03;9.30;99.90
51615;DHT22;37695;52.960;6.188;2024-02-21T07:52:29;9.40;99.90
51615;DHT22;37695;52.960;6.188;2024-02-21T07:54:54;9.40;99.90
51615;DHT22;37695;52.960;6.188;2024-02-21T07:57:20;9.40;99.90
51615;DHT22;37695;52.960;6.188;2024-02-21T07:59:46;9.40;99.90
51615;DHT22;37695;52.960;6.188;2024-02-21T08:02:16;9.40;99.90
51615;DHT22;37695;52.960;6.188;2024-02-21T08:04:42;9.40;99.90
51615;DHT22;37695;52.960;6.188;2024-02-21T08:07:08;9.40;99.90
51615;DHT22;37695;52.960;6.188;2024-02-21T08:09:34;9.40;99.90
51615;DHT22;37695;52.960;6.188;2024-02-21T08:12:01;9.40;99.90
51615;DHT22;37695;52.960;6.188;2024-02-21T08:14:27;9.40;99.90
51615;DHT22;37695;52.960;6.188;2024-02-21T08:16:53;9.40;99.90
51615;DHT22;37695;52.960;6.188;2024-02-21T08:19:20;9.40;99.90
51615;DHT22;37695;52.960;6.188;2024-02-21T08:21:45;9.40;99.90
51615;DHT22;37695;52.960;6.188;2024-02-21T08:24:14;9.40;99.90
51615;DHT22;37695;52.960;6.188;2024-02-21T08:26:43;9.40;99.90
51615;DHT22;37695;52.960;6.188;2024-02-21T08:29:12;9.50;99.90
51615;DHT22;37695;52.960;6.188;2024-02-21T08:31:38;9.50;99.90
51615;DHT22;37695;52.960;6.188;2024-02-21T08:34:03;9.50;99.90
51615;DHT22;37695;52.960;6.188;2024-02-21T08:36:36;9.50;99.90
51615;DHT22;37695;52.960;6.188;2024-02-21T08:39:02;9.50;99.90
51615;DHT22;37695;52.960;6.188;2024-02-21T08:41:31;9.60;99.90
51615;DHT22;37695;52.960;6.188;2024-02-21T08:43:57;9.50;99.90
51615;DHT22;37695;52.960;6.188;2024-02-21T08:46:23;9.50;99.90
51615;DHT22;37695;52.960;6.188;2024-02-21T08:48:53;9.50;99.90
51615;DHT22;37695;52.960;6.188;2024-02-21T08:51:19;9.60;99.90
51615;DHT22;37695;52.960;6.188;2024-02-21T08:53:45;9.60;99.90
51615;DHT22;37695;52.960;6.188;2024-02-21T08:56:11;9.60;99.90
51615;DHT22;37695;52.960;6.188;2024-02-21T08:58:38;9.60;99.90
51615;DHT22;37695;52.960;6.188;2024-02-21T09:01:04;9.60;99.90
51615;DHT22;37695;52.960;6.188;2024-02-21T09:03:32;9.60;99.90
51615;DHT22;37695;52.960;6.188;2024-02-21T09:05:57;9.60;99.90
51615;DHT22;37695;52.960;6.188;2024-02-21T09:08:23;9.60;99.90
51615;DHT22;37695;52.960;6.188;2024-02-21T09:10:50;8.90;99.90
51615;DHT22;37695;52.960;6.188;2024-02-21T09:13:15;9.60;99.90
51615;DHT22;37695;52.960;6.188;2024-02-21T09:15:42;9.70;99.90
51615;DHT22;37695;52.960;6.188;2024-02-21T09:18:07;9.70;99.90
51615;DHT22;37695;52.960;6.188;2024-02-21T09:20:33;9.70;99.90
51615;DHT22;37695;52.960;6.188;2024-02-21T09:22:59;9.70;99.90
51615;DHT22;37695;52.960;6.188;2024-02-21T09:25:24;9.70;99.90
51615;DHT22;37695;52.960;6.188;2024-02-21T09:27:50;9.70;99.90
51615;DHT22;37695;52.960;6.188;2024-02-21T09:30:17;9.70;99.90
51615;DHT22;37695;52.960;6.188;2024-02-21T09:32:44;9.70;99.90
51615;DHT22;37695;52.960;6.188;2024-02-21T09:35:09;9.70;99.90
51615;DHT22;37695;52.960;6.188;2024-02-21T09:37:35;9.70;99.90
51615;DHT22;37695;52.960;6.188;2024-02-21T09:40:01;9.70;99.90
51615;DHT22;37695;52.960;6.188;2024-02-21T09:42:48;9.70;99.90
51615;DHT22;37695;52.960;6.188;2024-02-21T09:45:24;9.70;99.90
51615;DHT22;37695;52.960;6.188;2024-02-21T09:50:40;9.80;99.90
51615;DHT22;37695;52.960;6.188;2024-02-21T09:53:06;9.80;99.90
51615;DHT22;37695;52.960;6.188;2024-02-21T09:55:36;9.90;99.90
51615;DHT22;37695;52.960;6.188;2024-02-21T09:58:05;9.90;99.90
51615;DHT22;37695;52.960;6.188;2024-02-21T10:00:31;9.80;99.90
51615;DHT22;37695;52.960;6.188;2024-02-21T10:02:58;9.90;99.90
51615;DHT22;37695;52.960;6.188;2024-02-21T10:05:23;9.90;99.90
51615;DHT22;37695;52.960;6.188;2024-02-21T10:07:51;9.90;99.90
51615;DHT22;37695;52.960;6.188;2024-02-21T10:10:17;9.90;99.90
51615;DHT22;37695;52.960;6.188;2024-02-21T10:12:53;9.90;99.90
51615;DHT22;37695;52.960;6.188;2024-02-21T10:15:24;10.00;99.90
51615;DHT22;37695;52.960;6.188;2024-02-21T10:18:10;10.00;99.90
51615;DHT22;37695;52.960;6.188;2024-02-21T10:20:36;10.00;99.90
51615;DHT22;37695;52.960;6.188;2024-02-21T10:23:03;10.10;99.90
51615;DHT22;37695;52.960;6.188;2024-02-21T10:25:33;10.10;99.90
51615;DHT22;37695;52.960;6.188;2024-02-21T10:27:59;10.20;99.90
51615;DHT22;37695;52.960;6.188;2024-02-21T10:30:25;10.30;99.90
51615;DHT22;37695;52.960;6.188;2024-02-21T10:32:51;10.30;99.90
51615;DHT22;37695;52.960;6.188;2024-02-21T10:35:28;10.40;99.90
51615;DHT22;37695;52.960;6.188;2024-02-21T10:37:56;10.50;99.90
51615;DHT22;37695;52.960;6.188;2024-02-21T10:40:23;10.50;99.90
51615;DHT22;37695;52.960;6.188;2024-02-21T10:42:56;10.60;99.90
51615;DHT22;37695;52.960;6.188;2024-02-21T10:45:31;10.60;99.90
51615;DHT22;37695;52.960;6.188;2024-02-21T10:51:00;10.70;99.90
51615;DHT22;37695;52.960;6.188;2024-02-21T10:56:32;10.70;99.90
51615;DHT22;37695;52.960;6.188;2024-02-21T10:59:01;10.70;99.90
51615;DHT22;37695;52.960;6.188;2024-02-21T11:01:31;10.60;99.90
51615;DHT22;37695;52.960;6.188;2024-02-21T11:04:05;10.60;99.90
51615;DHT22;37695;52.960;6.188;2024-02-21T11:06:33;10.60;99.90
51615;DHT22;37695;52.960;6.188;2024-02-21T11:09:06;10.50;99.90
51615;DHT22;37695;52.960;6.188;2024-02-21T11:11:44;10.50;99.90
51615;DHT22;37695;52.960;6.188;2024-02-21T11:14:20;10.50;99.90
51615;DHT22;37695;52.960;6.188;2024-02-21T11:16:47;10.50;99.90
51615;DHT22;37695;52.960;6.188;2024-02-21T11:19:23;10.50;99.90
51615;DHT22;37695;52.960;6.188;2024-02-21T11:21:50;10.40;99.90
51615;DHT22;37695;52.960;6.188;2024-02-21T11:24:33;10.40;99.90
51615;DHT22;37695;52.960;6.188;2024-02-21T11:27:08;10.50;99.90
51615;DHT22;37695;52.960;6.188;2024-02-21T11:29:45;10.50;99.90
51615;DHT22;37695;52.960;6.188;2024-02-21T11:32:13;10.50;99.90
51615;DHT22;37695;52.960;6.188;2024-02-21T11:34:40;10.50;99.90
51615;DHT22;37695;52.960;6.188;2024-02-21T11:37:15;10.50;99.90
51615;DHT22;37695;52.960;6.188;2024-02-21T11:39:42;10.50;99.90
51615;DHT22;37695;52.960;6.188;2024-02-21T11:42:08;10.50;99.90
51615;DHT22;37695;52.960;6.188;2024-02-21T11:44:35;10.50;99.90
51615;DHT22;37695;52.960;6.188;2024-02-21T11:47:04;10.50;99.90
51615;DHT22;37695;52.960;6.188;2024-02-21T11:49:30;10.50;99.90
51615;DHT22;37695;52.960;6.188;2024-02-21T11:52:00;10.40;99.90
51615;DHT22;37695;52.960;6.188;2024-02-21T11:54:27;10.40;99.90
51615;DHT22;37695;52.960;6.188;2024-02-21T11:56:53;10.40;99.90
51615;DHT22;37695;52.960;6.188;2024-02-21T11:59:19;10.40;99.90
51615;DHT22;37695;52.960;6.188;2024-02-21T12:01:44;10.50;99.90
51615;DHT22;37695;52.960;6.188;2024-02-21T12:04:10;10.50;99.90
51615;DHT22;37695;52.960;6.188;2024-02-21T12:06:37;10.50;99.90
51615;DHT22;37695;52.960;6.188;2024-02-21T12:09:07;10.50;99.90
51615;DHT22;37695;52.960;6.188;2024-02-21T12:11:34;10.50;99.90
51615;DHT22;37695;52.960;6.188;2024-02-21T12:14:01;10.60;99.90
51615;DHT22;37695;52.960;6.188;2024-02-21T12:16:28;10.60;99.90
51615;DHT22;37695;52.960;6.188;2024-02-21T12:18:57;10.70;99.90
51615;DHT22;37695;52.960;6.188;2024-02-21T12:21:33;10.70;99.90
51615;DHT22;37695;52.960;6.188;2024-02-21T12:24:22;10.70;99.90
51615;DHT22;37695;52.960;6.188;2024-02-21T12:26:51;10.70;99.90
51615;DHT22;37695;52.960;6.188;2024-02-21T12:29:23;10.70;99.90
51615;DHT22;37695;52.960;6.188;2024-02-21T12:31:52;10.70;99.90
51615;DHT22;37695;52.960;6.188;2024-02-21T12:34:19;10.70;99.90
51615;DHT22;37695;52.960;6.188;2024-02-21T12:36:45;10.70;99.90
51615;DHT22;37695;52.960;6.188;2024-02-21T12:39:14;10.70;99.90
51615;DHT22;37695;52.960;6.188;2024-02-21T12:41:41;10.70;99.90
51615;DHT22;37695;52.960;6.188;2024-02-21T12:44:08;10.60;99.90
51615;DHT22;37695;52.960;6.188;2024-02-21T12:46:34;10.70;99.90
51615;DHT22;37695;52.960;6.188;2024-02-21T12:49:04;10.70;99.90
51615;DHT22;37695;52.960;6.188;2024-02-21T12:51:32;10.70;99.90
51615;DHT22;37695;52.960;6.188;2024-02-21T12:53:58;10.80;99.90
51615;DHT22;37695;52.960;6.188;2024-02-21T12:56:24;10.90;99.90
51615;DHT22;37695;52.960;6.188;2024-02-21T12:58:53;10.90;99.90
51615;DHT22;37695;52.960;6.188;2024-02-21T13:01:19;10.90;99.90
51615;DHT22;37695;52.960;6.188;2024-02-21T13:03:44;11.80;99.90
51615;DHT22;37695;52.960;6.188;2024-02-21T13:06:12;10.80;99.90
51615;DHT22;37695;52.960;6.188;2024-02-21T13:08:38;10.80;99.90
51615;DHT22;37695;52.960;6.188;2024-02-21T13:11:04;10.80;99.90
51615;DHT22;37695;52.960;6.188;2024-02-21T13:13:30;10.70;99.90
51615;DHT22;37695;52.960;6.188;2024-02-21T13:15:57;10.70;99.90
51615;DHT22;37695;52.960;6.188;2024-02-21T13:18:22;10.70;99.90
51615;DHT22;37695;52.960;6.188;2024-02-21T13:20:48;10.90;99.90
51615;DHT22;37695;52.960;6.188;2024-02-21T13:23:13;10.90;99.90
51615;DHT22;37695;52.960;6.188;2024-02-21T13:25:39;10.90;99.90
51615;DHT22;37695;52.960;6.188;2024-02-21T13:28:05;10.90;99.90
51615;DHT22;37695;52.960;6.188;2024-02-21T13:30:31;10.90;99.90
51615;DHT22;37695;52.960;6.188;2024-02-21T13:32:56;10.90;99.90
51615;DHT22;37695;52.960;6.188;2024-02-21T13:35:22;10.90;99.90
51615;DHT22;37695;52.960;6.188;2024-02-21T13:37:47;11.00;99.90
51615;DHT22;37695;52.960;6.188;2024-02-21T13:40:14;11.00;99.90
51615;DHT22;37695;52.960;6.188;2024-02-21T13:42:40;11.00;99.90
51615;DHT22;37695;52.960;6.188;2024-02-21T13:45:06;11.00;99.90
51615;DHT22;37695;52.960;6.188;2024-02-21T13:47:32;10.90;99.90
51615;DHT22;37695;52.960;6.188;2024-02-21T13:49:58;10.90;99.90
51615;DHT22;37695;52.960;6.188;2024-02-21T13:52:24;10.90;99.90
51615;DHT22;37695;52.960;6.188;2024-02-21T13:54:52;10.90;99.90
51615;DHT22;37695;52.960;6.188;2024-02-21T13:57:18;10.80;99.90
51615;DHT22;37695;52.960;6.188;2024-02-21T13:59:43;10.80;99.90
51615;DHT22;37695;52.960;6.188;2024-02-21T14:02:10;10.80;99.90
51615;DHT22;37695;52.960;6.188;2024-02-21T14:04:35;10.70;99.90
51615;DHT22;37695;52.960;6.188;2024-02-21T14:07:01;10.70;99.90
51615;DHT22;37695;52.960;6.188;2024-02-21T14:09:27;10.70;99.90
51615;DHT22;37695;52.960;6.188;2024-02-21T14:11:55;10.70;99.90
51615;DHT22;37695;52.960;6.188;2024-02-21T14:14:21;10.60;99.90
51615;DHT22;37695;52.960;6.188;2024-02-21T14:16:46;10.70;99.90
51615;DHT22;37695;52.960;6.188;2024-02-21T14:19:13;10.60;99.90
51615;DHT22;37695;52.960;6.188;2024-02-21T14:21:39;10.60;99.90
51615;DHT22;37695;52.960;6.188;2024-02-21T14:24:05;10.60;99.90
51615;DHT22;37695;52.960;6.188;2024-02-21T14:26:32;10.50;99.90
51615;DHT22;37695;52.960;6.188;2024-02-21T14:28:58;10.50;99.90
51615;DHT22;37695;52.960;6.188;2024-02-21T14:31:23;10.50;99.90
51615;DHT22;37695;52.960;6.188;2024-02-21T14:33:49;10.50;99.90
51615;DHT22;37695;52.960;6.188;2024-02-21T14:36:15;10.40;99.90
51615;DHT22;37695;52.960;6.188;2024-02-21T14:38:44;10.40;99.90
51615;DHT22;37695;52.960;6.188;2024-02-21T14:41:10;10.40;99.90
51615;DHT22;37695;52.960;6.188;2024-02-21T14:43:39;10.40;99.90
51615;DHT22;37695;52.960;6.188;2024-02-21T14:46:05;10.40;99.90
51615;DHT22;37695;52.960;6.188;2024-02-21T14:48:31;10.40;99.90
51615;DHT22;37695;52.960;6.188;2024-02-21T14:51:00;10.30;99.90
51615;DHT22;37695;52.960;6.188;2024-02-21T14:53:26;10.30;99.90
51615;DHT22;37695;52.960;6.188;2024-02-21T14:55:52;10.30;99.90
51615;DHT22;37695;52.960;6.188;2024-02-21T14:58:17;10.20;99.90
51615;DHT22;37695;52.960;6.188;2024-02-21T15:00:45;10.20;99.90
51615;DHT22;37695;52.960;6.188;2024-02-21T15:03:12;10.20;99.90
51615;DHT22;37695;52.960;6.188;2024-02-21T15:05:41;10.10;99.90
51615;DHT22;37695;52.960;6.188;2024-02-21T15:08:06;10.10;99.90
51615;DHT22;37695;52.960;6.188;2024-02-21T15:10:34;10.10;99.90
51615;DHT22;37695;52.960;6.188;2024-02-21T15:13:00;10.10;99.90
51615;DHT22;37695;52.960;6.188;2024-02-21T15:15:26;10.10;99.90
51615;DHT22;37695;52.960;6.188;2024-02-21T15:17:51;10.10;99.90
51615;DHT22;37695;52.960;6.188;2024-02-21T15:20:17;10.10;99.90
51615;DHT22;37695;52.960;6.188;2024-02-21T15:22:43;10.10;99.90
51615;DHT22;37695;52.960;6.188;2024-02-21T15:25:09;10.20;99.90
51615;DHT22;37695;52.960;6.188;2024-02-21T15:27:44;10.10;99.90
51615;DHT22;37695;52.960;6.188;2024-02-21T15:30:11;10.10;99.90
51615;DHT22;37695;52.960;6.188;2024-02-21T15:32:38;10.10;99.90
51615;DHT22;37695;52.960;6.188;2024-02-21T15:35:04;10.10;99.90
51615;DHT22;37695;52.960;6.188;2024-02-21T15:37:34;10.10;99.90
51615;DHT22;37695;52.960;6.188;2024-02-21T15:40:00;10.10;99.90
51615;DHT22;37695;52.960;6.188;2024-02-21T15:42:26;10.10;99.90
51615;DHT22;37695;52.960;6.188;2024-02-21T15:44:52;10.00;99.90
51615;DHT22;37695;52.960;6.188;2024-02-21T15:47:19;10.00;99.90
51615;DHT22;37695;52.960;6.188;2024-02-21T15:49:49;10.00;99.90